Mata, Brazil
Current Conditions -  °F | °C
As of 9:00 AM on Thursday 18 Dec 2014 (Local Time) from SBSM Reporting Station
Broken Clouds Broken Clouds  
Wind Chill: 73°   Ceiling: 2500
Heat Index: 73°   Visibility: 6mi
Dew Point: 68°   Wind: 3mph
Humidity: 83%   Direction: 260°W
Pressure: 29.88"   Gusts: NA
Location:  29.57°S, 54.45°W
Report Text: SBSM 181100Z 26003KT 220V290 9999 BKN025 23/20 Q1012
Loading
Personal Weather Stations






























Interactive Weather Map New forecast layout! Learn more

10-Day Weather Forecast

Advertisements
Track Severe Weather on mobile